Frenchboro, Maine
Current Conditions -  °F | °C
As of 7:55 AM on Saturday 25 Oct 2014 (Local Time) from KBHB Reporting Station
Overcast Overcast  
Wind Chill: 42°   Ceiling: 4800
Heat Index: 45°   Visibility: 10mi
Dew Point: 43°   Wind: 5mph
Humidity: 93%   Direction: 310°NW
Pressure: 29.65"   Gusts: NA
Location:  44.12°N, 68.36°W
Report Text: KBHB 251155Z AUTO 31004KT 10SM BKN048 OVC055 07/06 A2965 RMK AO1 70008 10070 20070 52007
Loading
Personal Weather Stations






























Interactive Weather Map
Tropical Storm Tracking
New forecast layout! Learn more

10-Day Weather Forecast

Advertisements
Track Severe Weather on mobile